KLWS/LWS METAR and TAF weather

Enter ICAO airport designator
Station Type Date Time Source
KLWS METAR 2022/01/29 00:56 UTC NOAA

KLWS 290056Z 25004KT 10SM CLR 00/M04 A3042 RMK AO2 SLP320 T00001044


Station Type Date Time Source
KLWS Decoded METAR 2022/01/29 00:56 UTC NOAA

LEWISTON NEZ PERCE CO AIRPORT , ID, United States (KLWS) 46-22N 117-01W 438M
Jan 28, 2022 - 07:56 PM EST / 2022.01.29 0056 UTC
Wind: from the WSW (250 degrees) at 5 MPH (4 KT):0
Visibility: 10 mile(s):0
Sky conditions: clear
Temperature: 32.0 F (0.0 C)
Windchill: 26 F (-3 C):1
Dew Point: 24.1 F (-4.4 C)
Relative Humidity: 72%
Pressure (altimeter): 30.42 in. Hg (1030 hPa)
ob: KLWS 290056Z 25004KT 10SM CLR 00/M04 A3042 RMK AO2 SLP320 T00001044
cycle: 1

Station Type Date Time Source
KLWS TAF 2022/01/28 22:54 UTC NOAA

TAF
AMD KLWS 282153Z 2822/2918 16006KT P6SM FEW250

Example: see airport list